sensor_id;sensor_type;location;lat;lon;timestamp;pressure;altitude;pressure_sealevel;temperature;humidity
52777;BME280;38656;54.260;20.822;2023-05-24T00:00:28;100808.63;;;25.45;53.07
52777;BME280;38656;54.260;20.822;2023-05-24T00:02:54;100815.94;;;25.18;54.11
52777;BME280;38656;54.260;20.822;2023-05-24T00:05:22;100810.75;;;24.23;59.55
52777;BME280;38656;54.260;20.822;2023-05-24T00:07:49;100812.88;;;24.94;56.94
52777;BME280;38656;54.260;20.822;2023-05-24T00:10:15;100811.75;;;25.29;54.55
52777;BME280;38656;54.260;20.822;2023-05-24T00:12:41;100810.75;;;25.30;53.94
52777;BME280;38656;54.260;20.822;2023-05-24T00:15:08;100812.81;;;25.34;54.95
52777;BME280;38656;54.260;20.822;2023-05-24T00:17:34;100809.75;;;25.04;55.46
52777;BME280;38656;54.260;20.822;2023-05-24T00:20:09;100816.56;;;25.06;55.35
52777;BME280;38656;54.260;20.822;2023-05-24T00:22:37;100806.59;;;24.40;58.88
52777;BME280;38656;54.260;20.822;2023-05-24T00:25:04;100812.88;;;24.87;55.81
52777;BME280;38656;54.260;20.822;2023-05-24T00:27:30;100811.19;;;25.00;54.69
52777;BME280;38656;54.260;20.822;2023-05-24T00:29:56;100817.44;;;24.94;56.07
52777;BME280;38656;54.260;20.822;2023-05-24T00:32:22;100817.44;;;25.00;56.01
52777;BME280;38656;54.260;20.822;2023-05-24T00:34:48;100815.16;;;25.04;55.62
52777;BME280;38656;54.260;20.822;2023-05-24T00:37:15;100813.66;;;25.15;55.06
52777;BME280;38656;54.260;20.822;2023-05-24T00:39:41;100821.38;;;25.04;54.82
52777;BME280;38656;54.260;20.822;2023-05-24T00:42:07;100814.50;;;25.02;55.16
52777;BME280;38656;54.260;20.822;2023-05-24T00:44:33;100812.25;;;25.05;54.65
52777;BME280;38656;54.260;20.822;2023-05-24T00:47:00;100811.59;;;25.10;55.90
52777;BME280;38656;54.260;20.822;2023-05-24T00:49:26;100807.47;;;24.87;56.61
52777;BME280;38656;54.260;20.822;2023-05-24T00:51:53;100800.81;;;24.70;56.48
52777;BME280;38656;54.260;20.822;2023-05-24T00:54:20;100798.31;;;24.55;57.79
52777;BME280;38656;54.260;20.822;2023-05-24T00:56:47;100804.97;;;24.66;57.79
52777;BME280;38656;54.260;20.822;2023-05-24T00:59:14;100805.41;;;24.96;56.04
52777;BME280;38656;54.260;20.822;2023-05-24T01:01:40;100797.06;;;25.04;54.69
52777;BME280;38656;54.260;20.822;2023-05-24T01:04:06;100802.06;;;24.87;56.53
52777;BME280;38656;54.260;20.822;2023-05-24T01:15:17;100807.06;;;24.90;56.95
52777;BME280;38656;54.260;20.822;2023-05-24T01:27:04;100803.72;;;24.82;56.84
52777;BME280;38656;54.260;20.822;2023-05-24T01:29:33;100806.38;;;24.35;58.42
52777;BME280;38656;54.260;20.822;2023-05-24T01:32:00;100809.09;;;24.55;57.18
52777;BME280;38656;54.260;20.822;2023-05-24T01:34:27;100807.47;;;24.61;57.17
52777;BME280;38656;54.260;20.822;2023-05-24T01:36:53;100808.69;;;24.51;57.45
52777;BME280;38656;54.260;20.822;2023-05-24T01:39:20;100812.44;;;24.44;57.59
52777;BME280;38656;54.260;20.822;2023-05-24T01:48:10;100804.75;;;24.54;57.46
52777;BME280;38656;54.260;20.822;2023-05-24T01:50:59;100813.25;;;24.44;57.38
52777;BME280;38656;54.260;20.822;2023-05-24T01:53:29;100808.06;;;24.36;57.10
52777;BME280;38656;54.260;20.822;2023-05-24T01:56:03;100804.94;;;24.26;57.92
52777;BME280;38656;54.260;20.822;2023-05-24T01:58:32;100801.81;;;24.29;59.36
52777;BME280;38656;54.260;20.822;2023-05-24T02:00:59;100809.94;;;24.42;56.81
52777;BME280;38656;54.260;20.822;2023-05-24T02:03:25;100817.81;;;24.37;57.77
52777;BME280;38656;54.260;20.822;2023-05-24T02:05:51;100818.81;;;24.09;59.04
52777;BME280;38656;54.260;20.822;2023-05-24T02:08:18;100824.41;;;24.14;57.85
52777;BME280;38656;54.260;20.822;2023-05-24T02:10:44;100818.16;;;24.07;58.13
52777;BME280;38656;54.260;20.822;2023-05-24T02:13:10;100821.88;;;23.93;60.17
52777;BME280;38656;54.260;20.822;2023-05-24T02:15:36;100814.22;;;24.03;58.01
52777;BME280;38656;54.260;20.822;2023-05-24T02:18:02;100822.06;;;23.98;58.56
52777;BME280;38656;54.260;20.822;2023-05-24T02:20:29;100820.22;;;23.98;58.15
52777;BME280;38656;54.260;20.822;2023-05-24T02:22:56;100815.66;;;23.99;58.59
52777;BME280;38656;54.260;20.822;2023-05-24T02:25:23;100827.97;;;23.73;59.66
52777;BME280;38656;54.260;20.822;2023-05-24T02:27:49;100819.50;;;23.76;57.99
52777;BME280;38656;54.260;20.822;2023-05-24T02:30:15;100815.00;;;23.48;61.25
52777;BME280;38656;54.260;20.822;2023-05-24T02:32:41;100815.88;;;23.56;60.78
52777;BME280;38656;54.260;20.822;2023-05-24T02:35:07;100815.03;;;23.55;62.52
52777;BME280;38656;54.260;20.822;2023-05-24T02:37:34;100817.53;;;23.57;62.59
52777;BME280;38656;54.260;20.822;2023-05-24T02:40:02;100824.94;;;23.41;63.65
52777;BME280;38656;54.260;20.822;2023-05-24T02:42:29;100825.53;;;23.37;61.58
52777;BME280;38656;54.260;20.822;2023-05-24T02:44:55;100815.78;;;23.36;64.61
52777;BME280;38656;54.260;20.822;2023-05-24T02:47:21;100819.50;;;23.35;62.93
52777;BME280;38656;54.260;20.822;2023-05-24T02:49:47;100827.78;;;23.33;63.07
52777;BME280;38656;54.260;20.822;2023-05-24T02:52:13;100825.16;;;23.11;65.31
52777;BME280;38656;54.260;20.822;2023-05-24T02:54:40;100831.31;;;23.05;64.52
52777;BME280;38656;54.260;20.822;2023-05-24T02:57:06;100821.19;;;23.42;63.86
52777;BME280;38656;54.260;20.822;2023-05-24T02:59:33;100826.56;;;23.42;63.19
52777;BME280;38656;54.260;20.822;2023-05-24T03:01:59;100833.84;;;23.42;62.40
52777;BME280;38656;54.260;20.822;2023-05-24T03:04:25;100828.56;;;23.27;63.71
52777;BME280;38656;54.260;20.822;2023-05-24T03:06:51;100833.97;;;23.27;62.25
52777;BME280;38656;54.260;20.822;2023-05-24T03:09:18;100832.09;;;23.69;61.54
52777;BME280;38656;54.260;20.822;2023-05-24T03:11:44;100827.34;;;23.29;63.90
52777;BME280;38656;54.260;20.822;2023-05-24T03:14:11;100829.00;;;23.30;65.18
52777;BME280;38656;54.260;20.822;2023-05-24T03:16:37;100831.63;;;23.59;62.91
52777;BME280;38656;54.260;20.822;2023-05-24T03:19:04;100836.69;;;23.75;62.52
52777;BME280;38656;54.260;20.822;2023-05-24T03:21:30;100833.38;;;23.73;62.29
52777;BME280;38656;54.260;20.822;2023-05-24T03:23:57;100837.28;;;23.64;62.82
52777;BME280;38656;54.260;20.822;2023-05-24T03:26:23;100832.28;;;23.61;63.74
52777;BME280;38656;54.260;20.822;2023-05-24T03:28:49;100842.59;;;23.85;61.43
52777;BME280;38656;54.260;20.822;2023-05-24T03:31:16;100843.66;;;23.98;62.68
52777;BME280;38656;54.260;20.822;2023-05-24T03:33:45;100841.88;;;24.18;61.36
52777;BME280;38656;54.260;20.822;2023-05-24T03:36:11;100838.09;;;24.06;63.01
52777;BME280;38656;54.260;20.822;2023-05-24T03:38:37;100836.44;;;24.05;63.35
52777;BME280;38656;54.260;20.822;2023-05-24T03:41:04;100847.25;;;24.25;61.50
52777;BME280;38656;54.260;20.822;2023-05-24T03:43:30;100843.94;;;24.30;61.42
52777;BME280;38656;54.260;20.822;2023-05-24T03:45:56;100846.53;;;24.65;60.72
52777;BME280;38656;54.260;20.822;2023-05-24T03:48:22;100844.81;;;24.44;60.92
52777;BME280;38656;54.260;20.822;2023-05-24T03:50:48;100844.25;;;24.62;61.65
52777;BME280;38656;54.260;20.822;2023-05-24T03:53:14;100850.72;;;24.87;59.99
52777;BME280;38656;54.260;20.822;2023-05-24T03:55:40;100849.00;;;23.49;64.88
52777;BME280;38656;54.260;20.822;2023-05-24T03:58:06;100853.09;;;24.29;61.69
52777;BME280;38656;54.260;20.822;2023-05-24T04:00:33;100857.34;;;25.32;58.46
52777;BME280;38656;54.260;20.822;2023-05-24T04:02:59;100858.16;;;25.39;56.89
52777;BME280;38656;54.260;20.822;2023-05-24T04:05:26;100861.00;;;25.57;55.52
52777;BME280;38656;54.260;20.822;2023-05-24T04:07:55;100860.25;;;25.37;55.91
52777;BME280;38656;54.260;20.822;2023-05-24T04:10:21;100862.75;;;25.32;56.38
52777;BME280;38656;54.260;20.822;2023-05-24T04:12:48;100869.78;;;25.13;57.89
52777;BME280;38656;54.260;20.822;2023-05-24T04:15:14;100867.25;;;24.44;59.68
52777;BME280;38656;54.260;20.822;2023-05-24T04:17:41;100868.97;;;24.59;61.06
52777;BME280;38656;54.260;20.822;2023-05-24T04:20:09;100869.41;;;24.07;61.82
52777;BME280;38656;54.260;20.822;2023-05-24T04:22:35;100868.31;;;25.50;58.20
52777;BME280;38656;54.260;20.822;2023-05-24T04:25:02;100870.59;;;25.53;56.68
52777;BME280;38656;54.260;20.822;2023-05-24T04:27:28;100872.63;;;25.71;56.32
52777;BME280;38656;54.260;20.822;2023-05-24T04:29:55;100881.63;;;25.58;56.43
52777;BME280;38656;54.260;20.822;2023-05-24T04:32:21;100873.41;;;25.99;55.15
52777;BME280;38656;54.260;20.822;2023-05-24T04:34:48;100879.56;;;26.12;55.14
52777;BME280;38656;54.260;20.822;2023-05-24T04:37:15;100883.28;;;26.18;54.90
52777;BME280;38656;54.260;20.822;2023-05-24T04:39:42;100881.78;;;26.61;54.04
52777;BME280;38656;54.260;20.822;2023-05-24T04:42:12;100881.28;;;26.77;52.24
52777;BME280;38656;54.260;20.822;2023-05-24T04:44:41;100883.47;;;26.55;52.71
52777;BME280;38656;54.260;20.822;2023-05-24T04:47:08;100880.84;;;27.06;51.48
52777;BME280;38656;54.260;20.822;2023-05-24T04:49:35;100883.94;;;27.28;50.42
52777;BME280;38656;54.260;20.822;2023-05-24T04:52:01;100886.28;;;27.49;50.48
52777;BME280;38656;54.260;20.822;2023-05-24T04:54:27;100893.88;;;27.41;49.95
52777;BME280;38656;54.260;20.822;2023-05-24T04:56:53;100891.78;;;27.17;50.53
52777;BME280;38656;54.260;20.822;2023-05-24T04:59:20;100888.47;;;27.59;49.98
52777;BME280;38656;54.260;20.822;2023-05-24T05:01:46;100890.59;;;27.57;49.69
52777;BME280;38656;54.260;20.822;2023-05-24T05:04:13;100888.91;;;28.12;49.10
52777;BME280;38656;54.260;20.822;2023-05-24T05:06:39;100891.69;;;28.23;50.95
52777;BME280;38656;54.260;20.822;2023-05-24T05:09:09;100894.34;;;27.75;51.79
52777;BME280;38656;54.260;20.822;2023-05-24T05:11:36;100901.25;;;28.56;49.51
52777;BME280;38656;54.260;20.822;2023-05-24T05:14:02;100897.06;;;28.12;48.83
52777;BME280;38656;54.260;20.822;2023-05-24T05:16:28;100890.28;;;27.47;50.84
52777;BME280;38656;54.260;20.822;2023-05-24T05:18:54;100899.59;;;27.32;52.58
52777;BME280;38656;54.260;20.822;2023-05-24T05:21:20;100896.22;;;27.93;51.44
52777;BME280;38656;54.260;20.822;2023-05-24T05:23:47;100899.19;;;28.10;51.35
52777;BME280;38656;54.260;20.822;2023-05-24T05:26:13;100899.00;;;27.86;51.20
52777;BME280;38656;54.260;20.822;2023-05-24T05:28:39;100894.94;;;27.77;51.45
52777;BME280;38656;54.260;20.822;2023-05-24T05:31:05;100906.13;;;27.87;50.88
52777;BME280;38656;54.260;20.822;2023-05-24T05:33:31;100909.47;;;28.19;50.30
52777;BME280;38656;54.260;20.822;2023-05-24T05:35:58;100908.66;;;28.19;50.86
52777;BME280;38656;54.260;20.822;2023-05-24T05:38:24;100915.28;;;27.49;52.74
52777;BME280;38656;54.260;20.822;2023-05-24T05:40:51;100910.22;;;28.27;50.18
52777;BME280;38656;54.260;20.822;2023-05-24T05:43:17;100911.78;;;28.34;49.78
52777;BME280;38656;54.260;20.822;2023-05-24T05:45:43;100915.66;;;28.57;50.63
52777;BME280;38656;54.260;20.822;2023-05-24T05:48:09;100913.47;;;28.35;53.25
52777;BME280;38656;54.260;20.822;2023-05-24T05:50:35;100924.38;;;28.77;50.79
52777;BME280;38656;54.260;20.822;2023-05-24T05:53:01;100923.69;;;28.52;49.16
52777;BME280;38656;54.260;20.822;2023-05-24T05:55:27;100926.53;;;27.89;51.45
52777;BME280;38656;54.260;20.822;2023-05-24T05:57:54;100933.75;;;28.33;49.99
52777;BME280;38656;54.260;20.822;2023-05-24T06:00:21;100929.00;;;28.89;49.88
52777;BME280;38656;54.260;20.822;2023-05-24T06:02:48;100930.84;;;28.76;50.35
52777;BME280;38656;54.260;20.822;2023-05-24T06:05:14;100932.31;;;28.91;50.55
52777;BME280;38656;54.260;20.822;2023-05-24T06:07:40;100929.97;;;29.06;49.47
52777;BME280;38656;54.260;20.822;2023-05-24T06:10:07;100936.63;;;29.34;48.95
52777;BME280;38656;54.260;20.822;2023-05-24T06:12:33;100935.09;;;29.50;49.74
52777;BME280;38656;54.260;20.822;2023-05-24T06:14:59;100935.72;;;28.56;52.84
52777;BME280;38656;54.260;20.822;2023-05-24T06:17:25;100946.97;;;28.29;52.71
52777;BME280;38656;54.260;20.822;2023-05-24T06:19:52;100940.28;;;28.62;53.46
52777;BME280;38656;54.260;20.822;2023-05-24T06:22:20;100949.50;;;29.15;51.53
52777;BME280;38656;54.260;20.822;2023-05-24T06:24:46;100953.56;;;29.60;49.76
52777;BME280;38656;54.260;20.822;2023-05-24T06:27:13;100956.34;;;29.06;46.89
52777;BME280;38656;54.260;20.822;2023-05-24T06:29:40;100948.22;;;29.41;45.90
52777;BME280;38656;54.260;20.822;2023-05-24T06:32:06;100950.81;;;28.40;46.91
52777;BME280;38656;54.260;20.822;2023-05-24T06:34:32;100951.66;;;28.22;46.39
52777;BME280;38656;54.260;20.822;2023-05-24T06:36:58;100954.03;;;28.30;47.98
52777;BME280;38656;54.260;20.822;2023-05-24T06:39:25;100959.81;;;28.22;45.95
52777;BME280;38656;54.260;20.822;2023-05-24T06:41:51;100957.16;;;29.06;44.71
52777;BME280;38656;54.260;20.822;2023-05-24T06:44:18;100959.81;;;28.83;46.08
52777;BME280;38656;54.260;20.822;2023-05-24T06:46:45;100966.56;;;29.22;46.49
52777;BME280;38656;54.260;20.822;2023-05-24T06:49:12;100965.50;;;29.59;45.58
52777;BME280;38656;54.260;20.822;2023-05-24T06:51:38;100967.84;;;29.67;46.98
52777;BME280;38656;54.260;20.822;2023-05-24T06:54:05;100965.88;;;29.27;45.98
52777;BME280;38656;54.260;20.822;2023-05-24T06:56:31;100971.19;;;29.45;44.60
52777;BME280;38656;54.260;20.822;2023-05-24T06:58:59;100979.59;;;30.32;44.15
52777;BME280;38656;54.260;20.822;2023-05-24T07:01:25;100981.44;;;29.20;45.66
52777;BME280;38656;54.260;20.822;2023-05-24T07:03:52;100982.28;;;30.03;45.79
52777;BME280;38656;54.260;20.822;2023-05-24T07:06:18;100986.97;;;30.19;45.72
52777;BME280;38656;54.260;20.822;2023-05-24T07:08:44;100994.84;;;29.33;45.43
52777;BME280;38656;54.260;20.822;2023-05-24T07:11:10;100993.66;;;29.29;45.52
52777;BME280;38656;54.260;20.822;2023-05-24T07:13:37;100991.69;;;30.36;45.04
52777;BME280;38656;54.260;20.822;2023-05-24T07:16:04;100997.53;;;30.16;45.58
52777;BME280;38656;54.260;20.822;2023-05-24T07:18:30;100998.41;;;29.45;45.98
52777;BME280;38656;54.260;20.822;2023-05-24T07:20:57;100995.09;;;29.91;44.63
52777;BME280;38656;54.260;20.822;2023-05-24T07:23:23;100999.19;;;30.17;45.33
52777;BME280;38656;54.260;20.822;2023-05-24T07:25:49;101009.75;;;29.78;45.02
52777;BME280;38656;54.260;20.822;2023-05-24T07:28:15;101006.19;;;30.65;43.99
52777;BME280;38656;54.260;20.822;2023-05-24T07:30:45;101013.91;;;30.04;44.86
52777;BME280;38656;54.260;20.822;2023-05-24T07:33:11;101015.94;;;28.65;49.05
52777;BME280;38656;54.260;20.822;2023-05-24T07:35:37;101021.72;;;29.77;45.57
52777;BME280;38656;54.260;20.822;2023-05-24T07:38:04;101025.13;;;30.19;45.11
52777;BME280;38656;54.260;20.822;2023-05-24T07:40:30;101023.63;;;30.00;46.29
52777;BME280;38656;54.260;20.822;2023-05-24T07:42:57;101024.72;;;30.40;45.81
52777;BME280;38656;54.260;20.822;2023-05-24T07:45:23;101024.31;;;30.07;47.27
52777;BME280;38656;54.260;20.822;2023-05-24T07:47:49;101029.56;;;29.97;47.09
52777;BME280;38656;54.260;20.822;2023-05-24T07:50:16;101035.56;;;29.99;47.11
52777;BME280;38656;54.260;20.822;2023-05-24T07:52:42;101041.47;;;30.19;46.03
52777;BME280;38656;54.260;20.822;2023-05-24T07:55:08;101044.59;;;30.11;45.74
52777;BME280;38656;54.260;20.822;2023-05-24T07:57:34;101040.78;;;30.12;45.71
52777;BME280;38656;54.260;20.822;2023-05-24T08:00:00;101043.16;;;30.21;45.85
52777;BME280;38656;54.260;20.822;2023-05-24T08:02:35;101044.22;;;29.96;45.74
52777;BME280;38656;54.260;20.822;2023-05-24T08:05:01;101048.13;;;30.00;46.19
52777;BME280;38656;54.260;20.822;2023-05-24T08:07:27;101052.75;;;29.99;46.34
52777;BME280;38656;54.260;20.822;2023-05-24T08:09:53;101050.38;;;29.91;45.99
52777;BME280;38656;54.260;20.822;2023-05-24T08:12:19;101058.06;;;30.06;46.18
52777;BME280;38656;54.260;20.822;2023-05-24T08:14:45;101060.00;;;29.94;46.23
52777;BME280;38656;54.260;20.822;2023-05-24T08:17:11;101063.75;;;30.05;46.38
52777;BME280;38656;54.260;20.822;2023-05-24T08:19:37;101064.50;;;30.64;44.92
52777;BME280;38656;54.260;20.822;2023-05-24T08:22:04;101061.34;;;30.84;44.57
52777;BME280;38656;54.260;20.822;2023-05-24T08:24:30;101071.38;;;30.96;44.61
52777;BME280;38656;54.260;20.822;2023-05-24T08:26:57;101070.28;;;30.68;44.43
52777;BME280;38656;54.260;20.822;2023-05-24T08:29:23;101067.44;;;29.87;45.28
52777;BME280;38656;54.260;20.822;2023-05-24T08:31:50;101068.72;;;30.43;45.15
52777;BME280;38656;54.260;20.822;2023-05-24T08:34:16;101069.19;;;30.16;45.15
52777;BME280;38656;54.260;20.822;2023-05-24T08:36:43;101066.50;;;30.05;45.99
52777;BME280;38656;54.260;20.822;2023-05-24T08:39:09;101067.19;;;30.47;45.75
52777;BME280;38656;54.260;20.822;2023-05-24T08:41:35;101073.94;;;30.09;46.21
52777;BME280;38656;54.260;20.822;2023-05-24T08:44:08;101073.50;;;30.94;45.53
52777;BME280;38656;54.260;20.822;2023-05-24T08:46:35;101076.16;;;30.48;45.83
52777;BME280;38656;54.260;20.822;2023-05-24T08:49:03;101077.97;;;30.42;45.73
52777;BME280;38656;54.260;20.822;2023-05-24T08:51:30;101084.00;;;30.44;45.84
52777;BME280;38656;54.260;20.822;2023-05-24T08:53:59;101081.22;;;31.26;45.33
52777;BME280;38656;54.260;20.822;2023-05-24T08:56:26;101081.78;;;30.41;46.55
52777;BME280;38656;54.260;20.822;2023-05-24T08:58:55;101086.06;;;30.66;46.31
52777;BME280;38656;54.260;20.822;2023-05-24T09:01:23;101082.06;;;31.43;44.72
52777;BME280;38656;54.260;20.822;2023-05-24T09:03:50;101082.63;;;31.28;46.14
52777;BME280;38656;54.260;20.822;2023-05-24T09:06:18;101087.66;;;31.19;45.12
52777;BME280;38656;54.260;20.822;2023-05-24T09:08:45;101085.09;;;31.30;46.07
52777;BME280;38656;54.260;20.822;2023-05-24T09:11:13;101082.47;;;32.03;44.45
52777;BME280;38656;54.260;20.822;2023-05-24T09:13:41;101089.00;;;32.41;43.79
52777;BME280;38656;54.260;20.822;2023-05-24T09:16:08;101098.59;;;31.53;45.11
52777;BME280;38656;54.260;20.822;2023-05-24T09:18:35;101090.34;;;31.82;44.86
52777;BME280;38656;54.260;20.822;2023-05-24T09:21:01;101092.78;;;31.33;45.19
52777;BME280;38656;54.260;20.822;2023-05-24T09:23:27;101097.63;;;31.76;44.58
52777;BME280;38656;54.260;20.822;2023-05-24T09:25:53;101099.81;;;31.57;44.37
52777;BME280;38656;54.260;20.822;2023-05-24T09:28:19;101094.09;;;31.76;44.49
52777;BME280;38656;54.260;20.822;2023-05-24T09:30:59;101101.75;;;33.02;43.17
52777;BME280;38656;54.260;20.822;2023-05-24T09:33:30;101096.31;;;32.13;42.90
52777;BME280;38656;54.260;20.822;2023-05-24T09:36:01;101101.53;;;32.37;42.45
52777;BME280;38656;54.260;20.822;2023-05-24T09:38:28;101098.81;;;32.81;42.14
52777;BME280;38656;54.260;20.822;2023-05-24T09:41:05;101099.41;;;33.38;41.32
52777;BME280;38656;54.260;20.822;2023-05-24T09:43:32;101103.69;;;33.28;40.41
52777;BME280;38656;54.260;20.822;2023-05-24T09:46:02;101106.56;;;33.44;39.23
52777;BME280;38656;54.260;20.822;2023-05-24T09:48:29;101102.06;;;33.60;39.17
52777;BME280;38656;54.260;20.822;2023-05-24T09:51:03;101107.34;;;34.62;40.04
52777;BME280;38656;54.260;20.822;2023-05-24T09:53:32;101101.78;;;34.42;38.30
52777;BME280;38656;54.260;20.822;2023-05-24T09:56:06;101101.97;;;34.83;38.67
52777;BME280;38656;54.260;20.822;2023-05-24T09:58:36;101108.63;;;36.10;35.80
52777;BME280;38656;54.260;20.822;2023-05-24T10:01:04;101110.31;;;35.91;35.98
52777;BME280;38656;54.260;20.822;2023-05-24T10:03:31;101109.75;;;35.63;35.70
52777;BME280;38656;54.260;20.822;2023-05-24T10:05:57;101107.56;;;35.70;35.25
52777;BME280;38656;54.260;20.822;2023-05-24T10:08:25;101109.88;;;34.74;36.43
52777;BME280;38656;54.260;20.822;2023-05-24T10:10:51;101109.72;;;35.22;36.96
52777;BME280;38656;54.260;20.822;2023-05-24T10:13:18;101115.22;;;35.22;36.89
52777;BME280;38656;54.260;20.822;2023-05-24T10:15:47;101112.44;;;36.14;36.82
52777;BME280;38656;54.260;20.822;2023-05-24T10:18:13;101122.41;;;35.54;35.64
52777;BME280;38656;54.260;20.822;2023-05-24T10:20:40;101118.50;;;35.19;36.04
52777;BME280;38656;54.260;20.822;2023-05-24T10:23:09;101116.22;;;36.49;35.46
52777;BME280;38656;54.260;20.822;2023-05-24T10:25:47;101121.47;;;37.01;33.47
52777;BME280;38656;54.260;20.822;2023-05-24T10:28:16;101117.19;;;35.73;34.73
52777;BME280;38656;54.260;20.822;2023-05-24T10:33:19;101115.59;;;37.82;33.21
52777;BME280;38656;54.260;20.822;2023-05-24T10:35:46;101118.66;;;37.06;33.69
52777;BME280;38656;54.260;20.822;2023-05-24T10:38:13;101120.13;;;36.33;33.46
52777;BME280;38656;54.260;20.822;2023-05-24T10:40:43;101122.50;;;36.55;32.75
52777;BME280;38656;54.260;20.822;2023-05-24T10:43:09;101126.88;;;37.16;33.05
52777;BME280;38656;54.260;20.822;2023-05-24T10:45:40;101115.78;;;36.82;32.43
52777;BME280;38656;54.260;20.822;2023-05-24T10:50:40;101120.66;;;37.40;32.49
52777;BME280;38656;54.260;20.822;2023-05-24T10:53:13;101119.31;;;37.72;31.07
52777;BME280;38656;54.260;20.822;2023-05-24T10:56:01;101112.78;;;36.78;31.15
52777;BME280;38656;54.260;20.822;2023-05-24T10:58:43;101113.31;;;37.20;32.13
52777;BME280;38656;54.260;20.822;2023-05-24T11:01:30;101118.66;;;37.11;30.56
52777;BME280;38656;54.260;20.822;2023-05-24T11:04:11;101119.88;;;36.90;31.12
52777;BME280;38656;54.260;20.822;2023-05-24T11:06:54;101123.91;;;36.53;31.46
52777;BME280;38656;54.260;20.822;2023-05-24T11:09:21;101119.06;;;36.89;30.77
52777;BME280;38656;54.260;20.822;2023-05-24T11:11:49;101114.59;;;36.38;30.75
52777;BME280;38656;54.260;20.822;2023-05-24T11:14:23;101123.94;;;36.37;32.92
52777;BME280;38656;54.260;20.822;2023-05-24T11:16:49;101111.31;;;36.91;31.59
52777;BME280;38656;54.260;20.822;2023-05-24T11:21:48;101119.56;;;36.31;31.60
52777;BME280;38656;54.260;20.822;2023-05-24T11:24:19;101110.88;;;38.12;31.58
52777;BME280;38656;54.260;20.822;2023-05-24T11:26:46;101113.09;;;37.16;29.95
52777;BME280;38656;54.260;20.822;2023-05-24T11:29:13;101107.16;;;36.44;30.71
52777;BME280;38656;54.260;20.822;2023-05-24T11:31:59;101104.19;;;37.30;30.35
52777;BME280;38656;54.260;20.822;2023-05-24T11:34:32;101110.84;;;37.18;30.28
52777;BME280;38656;54.260;20.822;2023-05-24T11:37:00;101110.38;;;37.11;29.21
52777;BME280;38656;54.260;20.822;2023-05-24T11:39:31;101107.47;;;37.32;27.52
52777;BME280;38656;54.260;20.822;2023-05-24T11:41:58;101102.19;;;37.75;26.87
52777;BME280;38656;54.260;20.822;2023-05-24T11:44:25;101108.97;;;37.83;26.97
52777;BME280;38656;54.260;20.822;2023-05-24T11:47:00;101103.34;;;37.64;25.92
52777;BME280;38656;54.260;20.822;2023-05-24T11:49:26;101107.59;;;37.85;25.49
52777;BME280;38656;54.260;20.822;2023-05-24T11:51:54;101107.00;;;37.88;26.40
52777;BME280;38656;54.260;20.822;2023-05-24T11:54:22;101106.31;;;38.02;27.08
52777;BME280;38656;54.260;20.822;2023-05-24T11:56:49;101104.78;;;38.15;25.20
52777;BME280;38656;54.260;20.822;2023-05-24T11:59:21;101102.31;;;36.80;26.43
52777;BME280;38656;54.260;20.822;2023-05-24T12:01:50;101102.25;;;37.65;25.98
52777;BME280;38656;54.260;20.822;2023-05-24T12:04:21;101102.75;;;37.72;25.60
52777;BME280;38656;54.260;20.822;2023-05-24T12:06:47;101104.47;;;38.21;25.00
52777;BME280;38656;54.260;20.822;2023-05-24T12:09:14;101109.47;;;39.39;24.93
52777;BME280;38656;54.260;20.822;2023-05-24T12:11:46;101105.56;;;38.20;25.53
52777;BME280;38656;54.260;20.822;2023-05-24T12:14:22;101101.09;;;37.71;25.99
52777;BME280;38656;54.260;20.822;2023-05-24T12:16:54;101104.38;;;37.04;25.65
52777;BME280;38656;54.260;20.822;2023-05-24T12:19:24;101104.88;;;37.80;25.72
52777;BME280;38656;54.260;20.822;2023-05-24T12:21:55;101095.38;;;37.92;24.15
52777;BME280;38656;54.260;20.822;2023-05-24T12:24:23;101094.78;;;38.86;25.61
52777;BME280;38656;54.260;20.822;2023-05-24T12:26:49;101089.84;;;39.02;24.88
52777;BME280;38656;54.260;20.822;2023-05-24T12:29:16;101098.63;;;37.40;25.69
52777;BME280;38656;54.260;20.822;2023-05-24T12:31:49;101103.03;;;36.96;24.47
52777;BME280;38656;54.260;20.822;2023-05-24T12:34:17;101096.91;;;38.51;23.09
52777;BME280;38656;54.260;20.822;2023-05-24T12:36:44;101094.81;;;37.95;23.04
52777;BME280;38656;54.260;20.822;2023-05-24T12:39:22;101101.00;;;38.35;22.93
52777;BME280;38656;54.260;20.822;2023-05-24T12:41:52;101100.91;;;38.40;23.02
52777;BME280;38656;54.260;20.822;2023-05-24T12:44:36;101098.22;;;38.35;23.24
52777;BME280;38656;54.260;20.822;2023-05-24T12:47:04;101099.13;;;37.42;22.86
52777;BME280;38656;54.260;20.822;2023-05-24T12:49:34;101097.50;;;38.72;22.99
52777;BME280;38656;54.260;20.822;2023-05-24T12:52:00;101100.75;;;39.12;22.15
52777;BME280;38656;54.260;20.822;2023-05-24T12:54:27;101095.31;;;38.88;22.51
52777;BME280;38656;54.260;20.822;2023-05-24T12:56:55;101105.59;;;35.19;27.40
52777;BME280;38656;54.260;20.822;2023-05-24T12:59:22;101093.47;;;34.26;25.99
52777;BME280;38656;54.260;20.822;2023-05-24T13:01:48;101097.66;;;35.33;25.62
52777;BME280;38656;54.260;20.822;2023-05-24T13:04:18;101094.56;;;36.17;25.42
52777;BME280;38656;54.260;20.822;2023-05-24T13:06:46;101097.59;;;34.97;25.71
52777;BME280;38656;54.260;20.822;2023-05-24T13:09:13;101087.88;;;37.73;25.32
52777;BME280;38656;54.260;20.822;2023-05-24T13:11:40;101083.00;;;38.37;23.82
52777;BME280;38656;54.260;20.822;2023-05-24T13:14:07;101081.63;;;37.86;24.76